sensor_id;sensor_type;location;lat;lon;timestamp;P1;durP1;ratioP1;P2;durP2;ratioP2
57551;SDS011;43379;48.160;14.036;2022-12-05T00:00:57;18.53;;;16.50;;
57551;SDS011;43379;48.160;14.036;2022-12-05T00:03:24;21.27;;;17.43;;
57551;SDS011;43379;48.160;14.036;2022-12-05T00:05:50;17.63;;;15.87;;
57551;SDS011;43379;48.160;14.036;2022-12-05T00:08:16;18.27;;;16.43;;
57551;SDS011;43379;48.160;14.036;2022-12-05T00:10:42;23.30;;;18.83;;
57551;SDS011;43379;48.160;14.036;2022-12-05T00:13:08;22.10;;;18.60;;
57551;SDS011;43379;48.160;14.036;2022-12-05T00:15:40;26.93;;;20.47;;
57551;SDS011;43379;48.160;14.036;2022-12-05T00:18:06;20.07;;;18.03;;
57551;SDS011;43379;48.160;14.036;2022-12-05T00:20:32;21.07;;;18.70;;
57551;SDS011;43379;48.160;14.036;2022-12-05T00:22:57;23.70;;;20.20;;
57551;SDS011;43379;48.160;14.036;2022-12-05T00:25:24;22.60;;;18.90;;
57551;SDS011;43379;48.160;14.036;2022-12-05T00:27:49;22.23;;;19.67;;
57551;SDS011;43379;48.160;14.036;2022-12-05T00:30:15;21.90;;;19.30;;
57551;SDS011;43379;48.160;14.036;2022-12-05T00:32:41;22.73;;;20.30;;
57551;SDS011;43379;48.160;14.036;2022-12-05T00:35:07;24.13;;;19.60;;
57551;SDS011;43379;48.160;14.036;2022-12-05T00:37:32;21.67;;;19.47;;
57551;SDS011;43379;48.160;14.036;2022-12-05T00:39:58;21.53;;;18.67;;
57551;SDS011;43379;48.160;14.036;2022-12-05T00:42:24;20.23;;;18.10;;
57551;SDS011;43379;48.160;14.036;2022-12-05T00:44:49;22.47;;;20.20;;
57551;SDS011;43379;48.160;14.036;2022-12-05T00:47:15;23.43;;;19.87;;
57551;SDS011;43379;48.160;14.036;2022-12-05T00:49:41;23.97;;;20.80;;
57551;SDS011;43379;48.160;14.036;2022-12-05T00:52:06;23.77;;;20.23;;
57551;SDS011;43379;48.160;14.036;2022-12-05T00:54:32;27.10;;;21.17;;
57551;SDS011;43379;48.160;14.036;2022-12-05T00:56:58;25.27;;;20.80;;
57551;SDS011;43379;48.160;14.036;2022-12-05T00:59:24;23.67;;;20.83;;
57551;SDS011;43379;48.160;14.036;2022-12-05T01:01:50;25.27;;;22.23;;
57551;SDS011;43379;48.160;14.036;2022-12-05T01:04:19;23.77;;;20.20;;
57551;SDS011;43379;48.160;14.036;2022-12-05T01:06:47;24.67;;;20.13;;
57551;SDS011;43379;48.160;14.036;2022-12-05T01:09:15;25.77;;;19.90;;
57551;SDS011;43379;48.160;14.036;2022-12-05T01:11:42;24.33;;;21.37;;
57551;SDS011;43379;48.160;14.036;2022-12-05T01:14:09;26.50;;;21.00;;
57551;SDS011;43379;48.160;14.036;2022-12-05T01:16:37;26.60;;;21.70;;
57551;SDS011;43379;48.160;14.036;2022-12-05T01:19:05;24.83;;;21.27;;
57551;SDS011;43379;48.160;14.036;2022-12-05T01:21:34;23.60;;;20.53;;
57551;SDS011;43379;48.160;14.036;2022-12-05T01:24:00;27.03;;;21.97;;
57551;SDS011;43379;48.160;14.036;2022-12-05T01:26:26;22.47;;;19.77;;
57551;SDS011;43379;48.160;14.036;2022-12-05T01:28:51;23.73;;;20.00;;
57551;SDS011;43379;48.160;14.036;2022-12-05T01:31:24;25.47;;;20.50;;
57551;SDS011;43379;48.160;14.036;2022-12-05T01:33:52;26.33;;;21.67;;
57551;SDS011;43379;48.160;14.036;2022-12-05T01:36:20;23.87;;;20.03;;
57551;SDS011;43379;48.160;14.036;2022-12-05T01:38:46;21.97;;;19.63;;
57551;SDS011;43379;48.160;14.036;2022-12-05T01:41:13;21.87;;;19.57;;
57551;SDS011;43379;48.160;14.036;2022-12-05T01:46:28;22.33;;;19.43;;
57551;SDS011;43379;48.160;14.036;2022-12-05T01:49:06;27.23;;;20.10;;
57551;SDS011;43379;48.160;14.036;2022-12-05T01:51:36;25.40;;;20.00;;
57551;SDS011;43379;48.160;14.036;2022-12-05T01:54:04;24.80;;;20.40;;
57551;SDS011;43379;48.160;14.036;2022-12-05T01:56:31;22.63;;;20.20;;
57551;SDS011;43379;48.160;14.036;2022-12-05T01:58:57;24.73;;;20.00;;
57551;SDS011;43379;48.160;14.036;2022-12-05T02:01:24;25.00;;;20.60;;
57551;SDS011;43379;48.160;14.036;2022-12-05T02:03:50;26.23;;;20.60;;
57551;SDS011;43379;48.160;14.036;2022-12-05T02:06:19;24.40;;;20.50;;
57551;SDS011;43379;48.160;14.036;2022-12-05T02:08:46;28.93;;;22.27;;
57551;SDS011;43379;48.160;14.036;2022-12-05T02:11:13;28.47;;;21.53;;
57551;SDS011;43379;48.160;14.036;2022-12-05T02:24:36;29.60;;;22.90;;
57551;SDS011;43379;48.160;14.036;2022-12-05T02:29:59;27.07;;;22.90;;
57551;SDS011;43379;48.160;14.036;2022-12-05T02:38:17;24.47;;;20.57;;
57551;SDS011;43379;48.160;14.036;2022-12-05T02:41:01;25.40;;;21.40;;
57551;SDS011;43379;48.160;14.036;2022-12-05T02:46:15;28.50;;;20.70;;
57551;SDS011;43379;48.160;14.036;2022-12-05T02:48:44;27.70;;;21.07;;
57551;SDS011;43379;48.160;14.036;2022-12-05T02:51:12;24.20;;;19.23;;
57551;SDS011;43379;48.160;14.036;2022-12-05T02:53:41;26.13;;;20.30;;
57551;SDS011;43379;48.160;14.036;2022-12-05T02:56:09;24.70;;;20.33;;
57551;SDS011;43379;48.160;14.036;2022-12-05T02:58:38;24.33;;;19.80;;
57551;SDS011;43379;48.160;14.036;2022-12-05T03:01:08;25.97;;;20.10;;
57551;SDS011;43379;48.160;14.036;2022-12-05T03:03:34;25.47;;;19.90;;
57551;SDS011;43379;48.160;14.036;2022-12-05T03:08:43;24.67;;;19.43;;
57551;SDS011;43379;48.160;14.036;2022-12-05T03:11:35;22.43;;;18.70;;
57551;SDS011;43379;48.160;14.036;2022-12-05T03:14:07;23.47;;;18.47;;
57551;SDS011;43379;48.160;14.036;2022-12-05T03:16:50;23.90;;;19.67;;
57551;SDS011;43379;48.160;14.036;2022-12-05T03:19:25;30.27;;;22.27;;
57551;SDS011;43379;48.160;14.036;2022-12-05T03:22:06;23.53;;;19.97;;
57551;SDS011;43379;48.160;14.036;2022-12-05T03:24:37;24.00;;;20.13;;
57551;SDS011;43379;48.160;14.036;2022-12-05T03:27:21;23.33;;;19.60;;
57551;SDS011;43379;48.160;14.036;2022-12-05T03:29:57;26.70;;;20.20;;
57551;SDS011;43379;48.160;14.036;2022-12-05T03:38:10;26.50;;;20.37;;
57551;SDS011;43379;48.160;14.036;2022-12-05T03:46:05;25.60;;;19.93;;
57551;SDS011;43379;48.160;14.036;2022-12-05T03:51:11;27.77;;;20.30;;
57551;SDS011;43379;48.160;14.036;2022-12-05T03:53:48;25.87;;;20.77;;
57551;SDS011;43379;48.160;14.036;2022-12-05T03:56:24;25.37;;;20.73;;
57551;SDS011;43379;48.160;14.036;2022-12-05T04:01:35;25.23;;;19.77;;
57551;SDS011;43379;48.160;14.036;2022-12-05T04:04:07;21.50;;;19.10;;
57551;SDS011;43379;48.160;14.036;2022-12-05T04:06:38;24.83;;;20.20;;
57551;SDS011;43379;48.160;14.036;2022-12-05T04:09:08;25.97;;;20.40;;
57551;SDS011;43379;48.160;14.036;2022-12-05T04:11:38;27.00;;;20.90;;
57551;SDS011;43379;48.160;14.036;2022-12-05T04:14:51;23.57;;;20.03;;
57551;SDS011;43379;48.160;14.036;2022-12-05T04:17:05;25.57;;;19.97;;
57551;SDS011;43379;48.160;14.036;2022-12-05T04:22:45;27.73;;;20.10;;
57551;SDS011;43379;48.160;14.036;2022-12-05T04:25:11;27.50;;;22.03;;
57551;SDS011;43379;48.160;14.036;2022-12-05T04:30:52;22.07;;;19.60;;
57551;SDS011;43379;48.160;14.036;2022-12-05T04:38:38;23.63;;;20.10;;
57551;SDS011;43379;48.160;14.036;2022-12-05T04:41:13;21.07;;;18.77;;
57551;SDS011;43379;48.160;14.036;2022-12-05T04:43:43;19.57;;;17.50;;
57551;SDS011;43379;48.160;14.036;2022-12-05T04:46:11;23.00;;;20.27;;
57551;SDS011;43379;48.160;14.036;2022-12-05T04:48:41;21.93;;;19.53;;
57551;SDS011;43379;48.160;14.036;2022-12-05T04:51:14;22.07;;;18.50;;
57551;SDS011;43379;48.160;14.036;2022-12-05T04:53:42;21.90;;;18.90;;
57551;SDS011;43379;48.160;14.036;2022-12-05T04:56:11;22.77;;;19.53;;
57551;SDS011;43379;48.160;14.036;2022-12-05T04:58:41;21.47;;;19.20;;
57551;SDS011;43379;48.160;14.036;2022-12-05T05:01:14;22.90;;;19.30;;
57551;SDS011;43379;48.160;14.036;2022-12-05T05:06:18;23.23;;;19.87;;
57551;SDS011;43379;48.160;14.036;2022-12-05T05:08:48;24.83;;;20.00;;
57551;SDS011;43379;48.160;14.036;2022-12-05T05:11:19;25.37;;;20.67;;
57551;SDS011;43379;48.160;14.036;2022-12-05T05:13:53;23.47;;;18.90;;
57551;SDS011;43379;48.160;14.036;2022-12-05T05:16:22;21.30;;;18.37;;
57551;SDS011;43379;48.160;14.036;2022-12-05T05:18:53;25.13;;;20.50;;
57551;SDS011;43379;48.160;14.036;2022-12-05T05:23:44;22.37;;;18.57;;
57551;SDS011;43379;48.160;14.036;2022-12-05T05:26:10;23.43;;;19.20;;
57551;SDS011;43379;48.160;14.036;2022-12-05T05:28:36;24.03;;;20.20;;
57551;SDS011;43379;48.160;14.036;2022-12-05T05:31:02;25.20;;;19.50;;
57551;SDS011;43379;48.160;14.036;2022-12-05T05:33:29;25.07;;;20.63;;
57551;SDS011;43379;48.160;14.036;2022-12-05T05:35:55;22.33;;;19.47;;
57551;SDS011;43379;48.160;14.036;2022-12-05T05:38:20;26.30;;;20.70;;
57551;SDS011;43379;48.160;14.036;2022-12-05T05:40:46;22.77;;;20.20;;
57551;SDS011;43379;48.160;14.036;2022-12-05T05:43:12;25.00;;;19.87;;
57551;SDS011;43379;48.160;14.036;2022-12-05T05:45:37;23.50;;;19.80;;
57551;SDS011;43379;48.160;14.036;2022-12-05T05:48:03;23.90;;;19.60;;
57551;SDS011;43379;48.160;14.036;2022-12-05T05:50:30;23.20;;;20.13;;
57551;SDS011;43379;48.160;14.036;2022-12-05T05:52:55;27.80;;;21.37;;
57551;SDS011;43379;48.160;14.036;2022-12-05T05:55:21;23.27;;;19.03;;
57551;SDS011;43379;48.160;14.036;2022-12-05T05:57:47;26.13;;;20.67;;
57551;SDS011;43379;48.160;14.036;2022-12-05T06:00:12;25.10;;;20.20;;
57551;SDS011;43379;48.160;14.036;2022-12-05T06:02:39;24.80;;;18.97;;
57551;SDS011;43379;48.160;14.036;2022-12-05T06:05:04;29.20;;;21.33;;
57551;SDS011;43379;48.160;14.036;2022-12-05T06:07:30;24.60;;;20.43;;
57551;SDS011;43379;48.160;14.036;2022-12-05T06:09:56;28.00;;;22.07;;
57551;SDS011;43379;48.160;14.036;2022-12-05T06:12:22;25.57;;;22.53;;
57551;SDS011;43379;48.160;14.036;2022-12-05T06:14:48;24.17;;;20.43;;
57551;SDS011;43379;48.160;14.036;2022-12-05T06:17:14;26.90;;;22.20;;
57551;SDS011;43379;48.160;14.036;2022-12-05T06:19:40;25.57;;;20.47;;
57551;SDS011;43379;48.160;14.036;2022-12-05T06:22:06;27.93;;;21.93;;
57551;SDS011;43379;48.160;14.036;2022-12-05T06:24:32;27.17;;;20.63;;
57551;SDS011;43379;48.160;14.036;2022-12-05T06:26:58;26.80;;;20.57;;
57551;SDS011;43379;48.160;14.036;2022-12-05T06:29:23;23.53;;;19.33;;
57551;SDS011;43379;48.160;14.036;2022-12-05T06:31:49;31.27;;;23.17;;
57551;SDS011;43379;48.160;14.036;2022-12-05T06:34:14;26.73;;;20.97;;
57551;SDS011;43379;48.160;14.036;2022-12-05T06:36:41;25.70;;;18.90;;
57551;SDS011;43379;48.160;14.036;2022-12-05T06:39:07;28.70;;;20.87;;
57551;SDS011;43379;48.160;14.036;2022-12-05T06:41:33;29.73;;;21.30;;
57551;SDS011;43379;48.160;14.036;2022-12-05T06:43:59;28.80;;;20.93;;
57551;SDS011;43379;48.160;14.036;2022-12-05T06:46:24;26.50;;;21.13;;
57551;SDS011;43379;48.160;14.036;2022-12-05T06:48:51;26.30;;;20.07;;
57551;SDS011;43379;48.160;14.036;2022-12-05T06:51:17;31.73;;;22.70;;
57551;SDS011;43379;48.160;14.036;2022-12-05T06:53:43;28.77;;;22.13;;
57551;SDS011;43379;48.160;14.036;2022-12-05T06:56:10;28.17;;;21.37;;
57551;SDS011;43379;48.160;14.036;2022-12-05T06:58:42;30.67;;;23.53;;
57551;SDS011;43379;48.160;14.036;2022-12-05T07:01:15;28.27;;;20.13;;
57551;SDS011;43379;48.160;14.036;2022-12-05T07:04:01;34.43;;;26.93;;
57551;SDS011;43379;48.160;14.036;2022-12-05T07:06:27;31.53;;;25.20;;
57551;SDS011;43379;48.160;14.036;2022-12-05T07:08:53;26.90;;;23.13;;
57551;SDS011;43379;48.160;14.036;2022-12-05T07:11:18;31.13;;;24.37;;
57551;SDS011;43379;48.160;14.036;2022-12-05T07:13:44;28.17;;;22.07;;
57551;SDS011;43379;48.160;14.036;2022-12-05T07:16:10;30.10;;;22.67;;
57551;SDS011;43379;48.160;14.036;2022-12-05T07:18:36;30.60;;;20.70;;
57551;SDS011;43379;48.160;14.036;2022-12-05T07:21:03;28.93;;;20.67;;
57551;SDS011;43379;48.160;14.036;2022-12-05T07:23:30;27.80;;;20.07;;
57551;SDS011;43379;48.160;14.036;2022-12-05T07:25:56;26.57;;;19.77;;
57551;SDS011;43379;48.160;14.036;2022-12-05T07:28:22;22.90;;;18.80;;
57551;SDS011;43379;48.160;14.036;2022-12-05T07:30:48;27.73;;;18.97;;
57551;SDS011;43379;48.160;14.036;2022-12-05T07:33:22;24.40;;;19.80;;
57551;SDS011;43379;48.160;14.036;2022-12-05T07:35:48;27.20;;;21.30;;
57551;SDS011;43379;48.160;14.036;2022-12-05T07:38:14;27.97;;;20.60;;
57551;SDS011;43379;48.160;14.036;2022-12-05T07:40:39;25.97;;;20.50;;
57551;SDS011;43379;48.160;14.036;2022-12-05T07:43:05;25.40;;;20.77;;
57551;SDS011;43379;48.160;14.036;2022-12-05T07:45:32;30.27;;;20.97;;
57551;SDS011;43379;48.160;14.036;2022-12-05T07:47:59;25.73;;;20.40;;
57551;SDS011;43379;48.160;14.036;2022-12-05T07:50:24;26.00;;;23.20;;
57551;SDS011;43379;48.160;14.036;2022-12-05T07:52:50;27.73;;;21.27;;
57551;SDS011;43379;48.160;14.036;2022-12-05T07:55:17;31.37;;;22.83;;
57551;SDS011;43379;48.160;14.036;2022-12-05T07:57:43;25.30;;;19.43;;
57551;SDS011;43379;48.160;14.036;2022-12-05T08:00:09;22.43;;;18.63;;
57551;SDS011;43379;48.160;14.036;2022-12-05T08:02:35;26.13;;;16.53;;
57551;SDS011;43379;48.160;14.036;2022-12-05T08:05:01;23.37;;;16.37;;
57551;SDS011;43379;48.160;14.036;2022-12-05T08:07:26;19.60;;;14.90;;
57551;SDS011;43379;48.160;14.036;2022-12-05T08:09:52;15.57;;;13.77;;
57551;SDS011;43379;48.160;14.036;2022-12-05T08:12:18;18.20;;;12.60;;
57551;SDS011;43379;48.160;14.036;2022-12-05T08:14:44;16.60;;;12.47;;
57551;SDS011;43379;48.160;14.036;2022-12-05T08:17:09;17.83;;;12.57;;
57551;SDS011;43379;48.160;14.036;2022-12-05T08:19:35;15.70;;;12.50;;
57551;SDS011;43379;48.160;14.036;2022-12-05T08:22:01;15.50;;;11.93;;
57551;SDS011;43379;48.160;14.036;2022-12-05T08:24:26;13.87;;;11.37;;
57551;SDS011;43379;48.160;14.036;2022-12-05T08:26:52;14.87;;;10.37;;
57551;SDS011;43379;48.160;14.036;2022-12-05T08:29:19;16.10;;;12.07;;
57551;SDS011;43379;48.160;14.036;2022-12-05T08:31:47;15.40;;;10.50;;
57551;SDS011;43379;48.160;14.036;2022-12-05T08:34:15;12.20;;;10.90;;
57551;SDS011;43379;48.160;14.036;2022-12-05T08:36:41;12.57;;;10.60;;
57551;SDS011;43379;48.160;14.036;2022-12-05T08:39:09;11.70;;;9.83;;
57551;SDS011;43379;48.160;14.036;2022-12-05T08:41:39;13.60;;;10.00;;
57551;SDS011;43379;48.160;14.036;2022-12-05T08:44:05;14.03;;;10.23;;
57551;SDS011;43379;48.160;14.036;2022-12-05T08:46:32;14.60;;;10.70;;
57551;SDS011;43379;48.160;14.036;2022-12-05T08:49:01;12.87;;;11.53;;
57551;SDS011;43379;48.160;14.036;2022-12-05T08:51:28;12.10;;;10.40;;
57551;SDS011;43379;48.160;14.036;2022-12-05T08:53:53;12.97;;;10.10;;
57551;SDS011;43379;48.160;14.036;2022-12-05T08:56:20;12.23;;;10.90;;
57551;SDS011;43379;48.160;14.036;2022-12-05T08:58:46;13.33;;;10.40;;
57551;SDS011;43379;48.160;14.036;2022-12-05T09:01:13;13.43;;;10.50;;
57551;SDS011;43379;48.160;14.036;2022-12-05T09:03:41;13.83;;;10.70;;
57551;SDS011;43379;48.160;14.036;2022-12-05T09:06:08;15.30;;;12.27;;
57551;SDS011;43379;48.160;14.036;2022-12-05T09:08:36;13.07;;;11.67;;
57551;SDS011;43379;48.160;14.036;2022-12-05T09:11:07;13.50;;;11.27;;
57551;SDS011;43379;48.160;14.036;2022-12-05T09:13:34;14.63;;;12.77;;
57551;SDS011;43379;48.160;14.036;2022-12-05T09:16:04;14.67;;;12.53;;
57551;SDS011;43379;48.160;14.036;2022-12-05T09:18:34;16.43;;;13.00;;
57551;SDS011;43379;48.160;14.036;2022-12-05T09:21:04;13.27;;;11.83;;
57551;SDS011;43379;48.160;14.036;2022-12-05T09:23:31;14.30;;;12.10;;
57551;SDS011;43379;48.160;14.036;2022-12-05T09:25:57;13.73;;;11.70;;
57551;SDS011;43379;48.160;14.036;2022-12-05T09:28:29;16.93;;;13.47;;
57551;SDS011;43379;48.160;14.036;2022-12-05T09:30:59;15.73;;;12.63;;
57551;SDS011;43379;48.160;14.036;2022-12-05T09:33:27;12.80;;;11.10;;
57551;SDS011;43379;48.160;14.036;2022-12-05T09:35:54;17.93;;;11.80;;
57551;SDS011;43379;48.160;14.036;2022-12-05T09:38:20;15.87;;;11.53;;
57551;SDS011;43379;48.160;14.036;2022-12-05T09:40:45;12.90;;;10.70;;
57551;SDS011;43379;48.160;14.036;2022-12-05T09:43:30;14.10;;;11.50;;
57551;SDS011;43379;48.160;14.036;2022-12-05T09:46:03;12.83;;;11.40;;
57551;SDS011;43379;48.160;14.036;2022-12-05T09:48:39;16.00;;;11.53;;
57551;SDS011;43379;48.160;14.036;2022-12-05T09:51:06;16.57;;;11.73;;
57551;SDS011;43379;48.160;14.036;2022-12-05T09:53:35;14.00;;;12.00;;
57551;SDS011;43379;48.160;14.036;2022-12-05T10:01:22;18.27;;;13.33;;
57551;SDS011;43379;48.160;14.036;2022-12-05T10:04:11;17.23;;;11.53;;
57551;SDS011;43379;48.160;14.036;2022-12-05T10:15:22;13.20;;;11.80;;
57551;SDS011;43379;48.160;14.036;2022-12-05T10:18:11;13.00;;;10.90;;
57551;SDS011;43379;48.160;14.036;2022-12-05T10:23:54;14.17;;;12.27;;
57551;SDS011;43379;48.160;14.036;2022-12-05T10:26:36;18.27;;;13.10;;
57551;SDS011;43379;48.160;14.036;2022-12-05T10:32:12;17.57;;;12.60;;
57551;SDS011;43379;48.160;14.036;2022-12-05T10:34:46;13.13;;;11.23;;
57551;SDS011;43379;48.160;14.036;2022-12-05T10:37:15;14.97;;;12.43;;
57551;SDS011;43379;48.160;14.036;2022-12-05T10:39:43;16.93;;;12.63;;
57551;SDS011;43379;48.160;14.036;2022-12-05T10:42:20;15.43;;;11.93;;
57551;SDS011;43379;48.160;14.036;2022-12-05T10:45:03;15.53;;;12.63;;
57551;SDS011;43379;48.160;14.036;2022-12-05T10:47:31;14.07;;;12.33;;
57551;SDS011;43379;48.160;14.036;2022-12-05T10:49:59;15.27;;;12.27;;
57551;SDS011;43379;48.160;14.036;2022-12-05T10:52:41;15.17;;;12.77;;
57551;SDS011;43379;48.160;14.036;2022-12-05T10:55:07;14.37;;;12.93;;
57551;SDS011;43379;48.160;14.036;2022-12-05T10:57:37;15.73;;;13.97;;
57551;SDS011;43379;48.160;14.036;2022-12-05T11:00:14;18.10;;;14.00;;
57551;SDS011;43379;48.160;14.036;2022-12-05T11:02:43;16.00;;;14.13;;
57551;SDS011;43379;48.160;14.036;2022-12-05T11:05:12;20.07;;;14.90;;
57551;SDS011;43379;48.160;14.036;2022-12-05T11:07:44;17.43;;;15.23;;
57551;SDS011;43379;48.160;14.036;2022-12-05T11:10:23;19.20;;;15.30;;
57551;SDS011;43379;48.160;14.036;2022-12-05T11:12:52;21.07;;;16.30;;
57551;SDS011;43379;48.160;14.036;2022-12-05T11:15:21;18.63;;;15.67;;
57551;SDS011;43379;48.160;14.036;2022-12-05T11:17:50;20.77;;;17.17;;
57551;SDS011;43379;48.160;14.036;2022-12-05T11:22:42;19.03;;;15.73;;
57551;SDS011;43379;48.160;14.036;2022-12-05T11:28:00;20.30;;;16.73;;
57551;SDS011;43379;48.160;14.036;2022-12-05T11:31:00;20.90;;;15.60;;
57551;SDS011;43379;48.160;14.036;2022-12-05T11:33:29;17.83;;;15.97;;
57551;SDS011;43379;48.160;14.036;2022-12-05T11:36:09;18.57;;;15.53;;
57551;SDS011;43379;48.160;14.036;2022-12-05T11:38:42;20.93;;;16.53;;
57551;SDS011;43379;48.160;14.036;2022-12-05T12:00:22;18.07;;;15.07;;
57551;SDS011;43379;48.160;14.036;2022-12-05T12:03:08;18.00;;;15.17;;
57551;SDS011;43379;48.160;14.036;2022-12-05T12:09:04;16.10;;;13.67;;
57551;SDS011;43379;48.160;14.036;2022-12-05T12:11:46;18.03;;;15.07;;
57551;SDS011;43379;48.160;14.036;2022-12-05T12:14:58;19.40;;;15.93;;
57551;SDS011;43379;48.160;14.036;2022-12-05T12:20:23;14.93;;;13.33;;
57551;SDS011;43379;48.160;14.036;2022-12-05T12:34:28;14.57;;;13.07;;
57551;SDS011;43379;48.160;14.036;2022-12-05T12:40:24;14.20;;;11.60;;
57551;SDS011;43379;48.160;14.036;2022-12-05T12:51:01;9.67;;;7.27;;
57551;SDS011;43379;48.160;14.036;2022-12-05T12:59:24;9.40;;;7.87;;
57551;SDS011;43379;48.160;14.036;2022-12-05T13:02:08;10.30;;;7.50;;
57551;SDS011;43379;48.160;14.036;2022-12-05T13:04:54;8.77;;;7.87;;
57551;SDS011;43379;48.160;14.036;2022-12-05T13:07:31;10.40;;;8.27;;
57551;SDS011;43379;48.160;14.036;2022-12-05T13:10:26;11.03;;;8.67;;
57551;SDS011;43379;48.160;14.036;2022-12-05T13:13:04;7.90;;;7.10;;
57551;SDS011;43379;48.160;14.036;2022-12-05T13:18:00;9.03;;;8.20;;
57551;SDS011;43379;48.160;14.036;2022-12-05T13:20:29;11.67;;;8.70;;
57551;SDS011;43379;48.160;14.036;2022-12-05T13:22:58;9.10;;;8.20;;
57551;SDS011;43379;48.160;14.036;2022-12-05T13:25:26;10.07;;;8.90;;
57551;SDS011;43379;48.160;14.036;2022-12-05T13:28:02;14.00;;;8.63;;
57551;SDS011;43379;48.160;14.036;2022-12-05T13:30:30;8.90;;;8.00;;
57551;SDS011;43379;48.160;14.036;2022-12-05T13:32:58;9.90;;;8.43;;
57551;SDS011;43379;48.160;14.036;2022-12-05T13:41:37;11.80;;;8.77;;
57551;SDS011;43379;48.160;14.036;2022-12-05T13:44:31;13.03;;;9.70;;
57551;SDS011;43379;48.160;14.036;2022-12-05T13:47:00;15.00;;;11.40;;
57551;SDS011;43379;48.160;14.036;2022-12-05T13:49:42;16.07;;;12.50;;
57551;SDS011;43379;48.160;14.036;2022-12-05T13:52:18;14.53;;;11.60;;
57551;SDS011;43379;48.160;14.036;2022-12-05T13:55:02;12.50;;;9.30;;
57551;SDS011;43379;48.160;14.036;2022-12-05T13:57:56;12.13;;;10.20;;
57551;SDS011;43379;48.160;14.036;2022-12-05T14:02:59;13.17;;;10.73;;
57551;SDS011;43379;48.160;14.036;2022-12-05T14:15:45;13.53;;;10.80;;
57551;SDS011;43379;48.160;14.036;2022-12-05T14:26:26;12.20;;;10.57;;
57551;SDS011;43379;48.160;14.036;2022-12-05T14:32:24;14.47;;;10.60;;
57551;SDS011;43379;48.160;14.036;2022-12-05T14:37:25;14.97;;;11.00;;
57551;SDS011;43379;48.160;14.036;2022-12-05T14:39:56;13.60;;;10.23;;
57551;SDS011;43379;48.160;14.036;2022-12-05T14:42:33;15.77;;;11.00;;
57551;SDS011;43379;48.160;14.036;2022-12-05T14:45:22;15.30;;;9.73;;
57551;SDS011;43379;48.160;14.036;2022-12-05T14:47:56;12.63;;;10.43;;
57551;SDS011;43379;48.160;14.036;2022-12-05T14:50:35;19.20;;;11.63;;
57551;SDS011;43379;48.160;14.036;2022-12-05T14:56:08;14.57;;;11.83;;
57551;SDS011;43379;48.160;14.036;2022-12-05T15:01:43;13.90;;;10.37;;
57551;SDS011;43379;48.160;14.036;2022-12-05T15:07:15;12.30;;;10.30;;
57551;SDS011;43379;48.160;14.036;2022-12-05T15:12:54;17.00;;;10.40;;
57551;SDS011;43379;48.160;14.036;2022-12-05T15:21:00;13.67;;;11.40;;
57551;SDS011;43379;48.160;14.036;2022-12-05T15:31:50;14.17;;;11.40;;
57551;SDS011;43379;48.160;14.036;2022-12-05T15:34:30;17.07;;;12.43;;
57551;SDS011;43379;48.160;14.036;2022-12-05T15:37:27;14.37;;;12.77;;
57551;SDS011;43379;48.160;14.036;2022-12-05T15:40:13;14.77;;;11.63;;
57551;SDS011;43379;48.160;14.036;2022-12-05T15:42:48;14.90;;;10.07;;
57551;SDS011;43379;48.160;14.036;2022-12-05T15:45:20;16.97;;;11.67;;
57551;SDS011;43379;48.160;14.036;2022-12-05T15:47:52;14.40;;;11.07;;
57551;SDS011;43379;48.160;14.036;2022-12-05T15:50:32;13.47;;;10.93;;
57551;SDS011;43379;48.160;14.036;2022-12-05T15:55:38;16.47;;;11.57;;
57551;SDS011;43379;48.160;14.036;2022-12-05T15:58:10;12.00;;;10.27;;
57551;SDS011;43379;48.160;14.036;2022-12-05T16:00:38;13.60;;;11.50;;
57551;SDS011;43379;48.160;14.036;2022-12-05T16:03:10;17.03;;;12.23;;
57551;SDS011;43379;48.160;14.036;2022-12-05T16:08:16;17.70;;;11.17;;
57551;SDS011;43379;48.160;14.036;2022-12-05T16:10:42;16.13;;;11.47;;
57551;SDS011;43379;48.160;14.036;2022-12-05T16:13:11;14.30;;;11.30;;
57551;SDS011;43379;48.160;14.036;2022-12-05T16:15:44;17.83;;;13.10;;
57551;SDS011;43379;48.160;14.036;2022-12-05T16:20:52;14.43;;;11.37;;
57551;SDS011;43379;48.160;14.036;2022-12-05T16:23:29;21.20;;;13.87;;
57551;SDS011;43379;48.160;14.036;2022-12-05T16:28:59;21.20;;;13.20;;
57551;SDS011;43379;48.160;14.036;2022-12-05T16:31:26;24.43;;;13.67;;
57551;SDS011;43379;48.160;14.036;2022-12-05T16:34:05;15.37;;;12.87;;
57551;SDS011;43379;48.160;14.036;2022-12-05T16:36:32;14.53;;;11.80;;
57551;SDS011;43379;48.160;14.036;2022-12-05T16:39:05;16.30;;;11.10;;
57551;SDS011;43379;48.160;14.036;2022-12-05T16:41:37;23.47;;;13.50;;
57551;SDS011;43379;48.160;14.036;2022-12-05T16:44:04;27.30;;;14.90;;
57551;SDS011;43379;48.160;14.036;2022-12-05T16:46:50;16.43;;;11.93;;
57551;SDS011;43379;48.160;14.036;2022-12-05T16:49:18;15.40;;;11.30;;
57551;SDS011;43379;48.160;14.036;2022-12-05T16:54:32;19.33;;;13.53;;
57551;SDS011;43379;48.160;14.036;2022-12-05T16:56:58;16.53;;;11.77;;
57551;SDS011;43379;48.160;14.036;2022-12-05T17:02:02;20.80;;;13.50;;
57551;SDS011;43379;48.160;14.036;2022-12-05T17:04:29;27.50;;;15.30;;
57551;SDS011;43379;48.160;14.036;2022-12-05T17:06:55;20.80;;;14.40;;
57551;SDS011;43379;48.160;14.036;2022-12-05T17:09:21;15.47;;;13.10;;
57551;SDS011;43379;48.160;14.036;2022-12-05T17:11:48;22.53;;;15.80;;
57551;SDS011;43379;48.160;14.036;2022-12-05T17:14:17;21.63;;;16.33;;
57551;SDS011;43379;48.160;14.036;2022-12-05T17:16:43;25.63;;;15.70;;
57551;SDS011;43379;48.160;14.036;2022-12-05T17:19:09;21.17;;;16.40;;
57551;SDS011;43379;48.160;14.036;2022-12-05T17:21:36;23.83;;;15.77;;
57551;SDS011;43379;48.160;14.036;2022-12-05T17:24:03;18.93;;;14.90;;
57551;SDS011;43379;48.160;14.036;2022-12-05T17:26:29;25.53;;;15.90;;
57551;SDS011;43379;48.160;14.036;2022-12-05T17:28:54;23.60;;;16.97;;
57551;SDS011;43379;48.160;14.036;2022-12-05T17:31:21;21.80;;;14.87;;
57551;SDS011;43379;48.160;14.036;2022-12-05T17:33:48;29.17;;;16.13;;
57551;SDS011;43379;48.160;14.036;2022-12-05T17:36:15;23.13;;;16.10;;
57551;SDS011;43379;48.160;14.036;2022-12-05T17:38:42;26.47;;;17.03;;
57551;SDS011;43379;48.160;14.036;2022-12-05T17:41:18;22.87;;;16.23;;
57551;SDS011;43379;48.160;14.036;2022-12-05T17:43:47;25.70;;;15.63;;
57551;SDS011;43379;48.160;14.036;2022-12-05T17:46:19;21.90;;;17.00;;
57551;SDS011;43379;48.160;14.036;2022-12-05T17:48:47;19.60;;;15.60;;
57551;SDS011;43379;48.160;14.036;2022-12-05T17:51:14;24.17;;;14.80;;
57551;SDS011;43379;48.160;14.036;2022-12-05T17:53:40;23.73;;;15.60;;
57551;SDS011;43379;48.160;14.036;2022-12-05T17:56:08;27.20;;;16.67;;
57551;SDS011;43379;48.160;14.036;2022-12-05T17:58:34;23.27;;;16.17;;
57551;SDS011;43379;48.160;14.036;2022-12-05T18:01:00;21.43;;;15.47;;
57551;SDS011;43379;48.160;14.036;2022-12-05T18:03:26;23.27;;;16.60;;
57551;SDS011;43379;48.160;14.036;2022-12-05T18:05:52;23.33;;;16.43;;